createdAt,value
2018-07-08T00:01:42.549Z,97.00
2018-07-08T00:04:11.645Z,97.20
2018-07-08T00:06:40.738Z,97.30
2018-07-08T00:09:09.760Z,97.50
2018-07-08T00:11:38.676Z,97.50
2018-07-08T00:14:07.533Z,97.50
2018-07-08T00:16:36.480Z,97.60
2018-07-08T00:19:05.256Z,97.70
2018-07-08T00:21:34.116Z,98.00
2018-07-08T00:24:03.243Z,98.00
2018-07-08T00:26:32.312Z,98.00
2018-07-08T00:29:01.193Z,98.20
2018-07-08T00:31:30.155Z,98.20
2018-07-08T00:33:58.925Z,98.30
2018-07-08T00:36:28.960Z,98.30
2018-07-08T00:38:57.855Z,98.50
2018-07-08T00:41:27.217Z,98.50
2018-07-08T00:43:56.085Z,98.60
2018-07-08T00:46:25.495Z,98.70
2018-07-08T00:48:55.061Z,98.80
2018-07-08T00:51:24.205Z,98.90
2018-07-08T00:53:53.043Z,99.10
2018-07-08T00:56:22.030Z,99.10
2018-07-08T00:58:51.034Z,99.30
2018-07-08T01:01:20.028Z,99.60
2018-07-08T01:03:48.958Z,99.20
2018-07-08T01:06:17.894Z,99.30
2018-07-08T01:08:46.824Z,99.30
2018-07-08T01:11:16.441Z,99.40
2018-07-08T01:13:45.275Z,99.40
2018-07-08T01:16:14.038Z,99.40
2018-07-08T01:18:42.738Z,99.50
2018-07-08T01:21:11.665Z,99.50
2018-07-08T01:23:40.602Z,99.70
2018-07-08T01:26:11.581Z,99.70
2018-07-08T01:28:41.593Z,99.90
2018-07-08T01:31:11.839Z,99.90
2018-07-08T01:33:40.885Z,99.90
2018-07-08T01:36:10.282Z,99.90
2018-07-08T01:38:39.251Z,99.90
2018-07-08T01:41:08.066Z,99.90
2018-07-08T01:43:37.006Z,99.90
2018-07-08T01:46:06.318Z,99.90
2018-07-08T01:48:35.284Z,99.90
2018-07-08T01:51:04.274Z,99.90
2018-07-08T01:56:01.772Z,99.90
2018-07-08T01:58:30.738Z,99.90
2018-07-08T02:00:59.650Z,99.90
2018-07-08T02:03:28.802Z,99.90
2018-07-08T02:05:57.866Z,99.90
2018-07-08T02:08:26.922Z,99.90
2018-07-08T02:10:55.867Z,99.90
2018-07-08T02:13:25.365Z,99.90
2018-07-08T02:15:54.389Z,99.90
2018-07-08T02:18:23.329Z,99.90
2018-07-08T02:20:52.835Z,99.90
2018-07-08T02:23:21.896Z,99.90
2018-07-08T02:25:50.884Z,99.90
2018-07-08T02:28:19.664Z,99.90
2018-07-08T02:30:48.642Z,99.90
2018-07-08T02:33:17.900Z,99.90
2018-07-08T02:35:47.004Z,99.90
2018-07-08T02:38:16.250Z,99.90
2018-07-08T02:40:45.885Z,99.90
2018-07-08T02:43:15.025Z,99.90
2018-07-08T02:45:44.092Z,99.90
2018-07-08T02:48:13.175Z,99.90
2018-07-08T02:50:42.166Z,99.90
2018-07-08T02:53:11.147Z,99.90
2018-07-08T02:55:40.101Z,99.90
2018-07-08T02:58:08.952Z,99.90
2018-07-08T03:00:37.764Z,99.90
2018-07-08T03:03:06.715Z,99.90
2018-07-08T03:05:35.724Z,99.90
2018-07-08T03:08:04.985Z,99.90
2018-07-08T03:10:33.908Z,99.90
2018-07-08T03:13:02.920Z,99.90
2018-07-08T03:15:31.919Z,99.90
2018-07-08T03:18:01.040Z,99.90
2018-07-08T03:20:30.207Z,99.90
2018-07-08T03:22:59.265Z,99.90
2018-07-08T03:25:28.102Z,99.90
2018-07-08T03:27:57.059Z,99.90
2018-07-08T03:30:25.960Z,99.90
2018-07-08T03:32:56.060Z,99.90
2018-07-08T03:35:25.111Z,99.90
2018-07-08T03:37:54.179Z,99.90
2018-07-08T03:40:23.374Z,99.90
2018-07-08T03:42:52.501Z,99.90
2018-07-08T03:45:21.645Z,99.90
2018-07-08T03:47:50.761Z,99.90
2018-07-08T03:50:20.284Z,99.90
2018-07-08T03:52:50.954Z,99.90
2018-07-08T03:55:20.286Z,99.90
2018-07-08T03:57:49.519Z,99.90
2018-07-08T04:00:18.846Z,99.90
2018-07-08T04:02:48.130Z,99.90
2018-07-08T04:05:17.732Z,99.90
2018-07-08T04:07:46.960Z,99.90
2018-07-08T04:10:16.149Z,99.90
2018-07-08T04:12:45.166Z,99.90
2018-07-08T04:15:14.326Z,99.90
2018-07-08T04:17:43.530Z,99.90
2018-07-08T04:20:12.428Z,99.90
2018-07-08T04:22:46.047Z,99.90
2018-07-08T04:25:15.227Z,99.90
2018-07-08T04:27:44.783Z,99.90
2018-07-08T04:30:13.999Z,99.90
2018-07-08T04:32:43.105Z,99.90
2018-07-08T04:35:12.577Z,99.90
2018-07-08T04:37:41.853Z,99.90
2018-07-08T04:40:11.364Z,99.90
2018-07-08T04:42:40.606Z,99.90
2018-07-08T04:45:09.632Z,99.90
2018-07-08T04:47:38.735Z,99.90
2018-07-08T04:50:07.898Z,99.90
2018-07-08T04:52:36.776Z,99.90
2018-07-08T04:55:05.752Z,99.90
2018-07-08T04:57:34.789Z,99.90
2018-07-08T05:02:32.637Z,99.90
2018-07-08T05:05:01.902Z,99.90
2018-07-08T05:07:30.713Z,99.90
2018-07-08T05:10:00.182Z,99.90
2018-07-08T05:12:31.747Z,99.90
2018-07-08T05:15:00.812Z,99.90
2018-07-08T05:17:29.965Z,99.90
2018-07-08T05:19:59.208Z,99.90
2018-07-08T05:22:28.064Z,99.90
2018-07-08T05:24:57.260Z,99.90
2018-07-08T05:27:26.692Z,99.90
2018-07-08T05:29:56.005Z,99.90
2018-07-08T05:32:25.154Z,99.90
2018-07-08T05:34:54.636Z,99.90
2018-07-08T05:37:24.167Z,99.90
2018-07-08T05:39:54.096Z,99.90
2018-07-08T05:42:23.204Z,99.90
2018-07-08T05:44:52.058Z,99.90
2018-07-08T05:47:20.981Z,99.90
2018-07-08T05:49:49.850Z,99.90
2018-07-08T05:52:18.693Z,99.90
2018-07-08T05:57:16.195Z,99.90
2018-07-08T05:59:45.409Z,99.90
2018-07-08T06:02:14.730Z,99.90
2018-07-08T06:04:43.583Z,99.90
2018-07-08T06:07:12.438Z,99.90
2018-07-08T06:09:48.155Z,99.90
2018-07-08T06:12:19.740Z,99.90
2018-07-08T06:14:53.941Z,99.90
2018-07-08T06:17:23.412Z,99.90
2018-07-08T06:19:52.952Z,99.90
2018-07-08T06:22:21.890Z,99.90
2018-07-08T06:24:50.817Z,99.90
2018-07-08T06:27:21.075Z,99.90
2018-07-08T06:29:49.875Z,99.90
2018-07-08T06:32:18.797Z,99.90
2018-07-08T06:34:47.577Z,99.90
2018-07-08T06:37:17.959Z,99.90
2018-07-08T06:39:46.818Z,99.90
2018-07-08T06:42:15.671Z,99.90
2018-07-08T06:44:45.891Z,99.90
2018-07-08T06:47:15.123Z,99.90
2018-07-08T06:49:44.200Z,99.90
2018-07-08T06:52:12.920Z,99.90
2018-07-08T06:54:41.650Z,99.90
2018-07-08T06:57:10.437Z,99.90
2018-07-08T06:59:39.162Z,99.50
2018-07-08T07:02:08.016Z,99.60
2018-07-08T07:04:36.690Z,99.90
2018-07-08T07:07:05.466Z,99.90
2018-07-08T07:09:34.246Z,98.80
2018-07-08T07:12:02.955Z,99.20
2018-07-08T07:14:31.705Z,98.90
2018-07-08T07:17:00.864Z,98.30
2018-07-08T07:19:29.678Z,97.40
2018-07-08T07:21:58.643Z,97.20
2018-07-08T07:24:27.271Z,97.30
2018-07-08T07:26:56.012Z,96.60
2018-07-08T07:29:24.749Z,96.70
2018-07-08T07:31:53.413Z,95.60
2018-07-08T07:34:22.250Z,96.20
2018-07-08T07:36:51.033Z,95.90
2018-07-08T07:39:19.767Z,95.70
2018-07-08T07:41:48.596Z,95.10
2018-07-08T07:44:17.259Z,95.20
2018-07-08T07:46:47.238Z,95.10
2018-07-08T07:49:15.890Z,95.60
2018-07-08T07:51:44.669Z,95.80
2018-07-08T07:54:13.415Z,94.70
2018-07-08T07:56:42.199Z,95.00
2018-07-08T07:59:10.938Z,94.00
2018-07-08T08:01:39.710Z,93.80
2018-07-08T08:04:08.459Z,93.90
2018-07-08T08:06:37.252Z,93.50
2018-07-08T08:09:07.040Z,93.60
2018-07-08T08:11:35.756Z,93.50
2018-07-08T08:14:05.622Z,93.80
2018-07-08T08:16:34.353Z,94.10
2018-07-08T08:19:03.776Z,93.90
2018-07-08T08:21:32.483Z,93.50
2018-07-08T08:24:01.165Z,92.90
2018-07-08T08:26:30.399Z,92.70
2018-07-08T08:28:59.121Z,93.10
2018-07-08T08:31:28.026Z,92.80
2018-07-08T08:35:10.437Z,92.40
2018-07-08T08:37:41.158Z,91.90
2018-07-08T08:40:10.675Z,93.10
2018-07-08T08:42:39.511Z,91.70
2018-07-08T08:45:09.599Z,92.40
2018-07-08T08:47:38.379Z,91.70
2018-07-08T08:50:07.922Z,91.70
2018-07-08T08:52:36.703Z,91.50
2018-07-08T08:55:06.328Z,91.50
2018-07-08T08:57:35.016Z,91.60
2018-07-08T09:00:06.370Z,91.40
2018-07-08T09:02:35.033Z,91.10
2018-07-08T09:05:03.726Z,91.50
2018-07-08T09:07:32.369Z,91.40
2018-07-08T09:10:01.067Z,91.10
2018-07-08T09:12:29.943Z,90.90
2018-07-08T09:14:58.685Z,90.60
2018-07-08T09:17:27.364Z,90.40
2018-07-08T09:19:56.063Z,89.60
2018-07-08T09:22:24.886Z,90.20
2018-07-08T09:24:53.551Z,89.90
2018-07-08T09:27:22.235Z,87.80
2018-07-08T09:29:50.941Z,88.40
2018-07-08T09:32:19.709Z,89.10
2018-07-08T09:34:48.427Z,89.50
2018-07-08T09:37:17.127Z,90.10
2018-07-08T09:39:45.887Z,89.10
2018-07-08T09:42:15.423Z,90.20
2018-07-08T09:44:44.119Z,89.40
2018-07-08T09:47:13.565Z,89.20
2018-07-08T09:49:42.365Z,89.40
2018-07-08T09:52:11.090Z,88.30
2018-07-08T09:54:39.808Z,88.20
2018-07-08T09:57:08.578Z,87.70
2018-07-08T09:59:37.246Z,89.20
2018-07-08T10:02:06.030Z,88.30
2018-07-08T10:04:34.809Z,88.50
2018-07-08T10:07:03.484Z,87.80
2018-07-08T10:09:32.241Z,88.30
2018-07-08T10:12:01.031Z,88.90
2018-07-08T10:14:29.827Z,87.90
2018-07-08T10:16:58.538Z,88.00
2018-07-08T10:19:27.381Z,89.10
2018-07-08T10:21:56.020Z,87.60
2018-07-08T10:24:24.759Z,86.60
2018-07-08T10:28:09.240Z,85.80
2018-07-08T10:30:37.950Z,84.60
2018-07-08T10:33:06.680Z,85.10
2018-07-08T10:35:46.485Z,84.30
2018-07-08T10:38:16.030Z,84.60
2018-07-08T10:40:45.254Z,85.30
2018-07-08T10:43:14.049Z,84.90
2018-07-08T10:45:42.828Z,84.50
2018-07-08T10:48:11.537Z,85.10
2018-07-08T10:50:40.255Z,85.10
2018-07-08T10:53:09.067Z,83.80
2018-07-08T10:55:37.799Z,84.50
2018-07-08T10:58:07.293Z,84.80
2018-07-08T11:00:36.001Z,83.10
2018-07-08T11:03:04.754Z,85.20
2018-07-08T11:05:33.523Z,81.50
2018-07-08T11:08:02.261Z,82.30
2018-07-08T11:10:30.986Z,81.70
2018-07-08T11:12:59.669Z,82.20
2018-07-08T11:15:28.378Z,82.20
2018-07-08T11:17:57.063Z,82.40
2018-07-08T11:20:25.779Z,80.40
2018-07-08T11:22:54.558Z,80.10
2018-07-08T11:25:23.276Z,79.40
2018-07-08T11:27:51.988Z,80.80
2018-07-08T11:30:20.630Z,81.60
2018-07-08T11:32:49.284Z,80.90
2018-07-08T11:35:17.994Z,79.70
2018-07-08T11:37:46.696Z,79.40
2018-07-08T11:40:15.385Z,78.60
2018-07-08T11:42:44.101Z,78.10
2018-07-08T11:45:12.943Z,75.50
2018-07-08T11:47:41.692Z,76.00
2018-07-08T11:50:10.401Z,76.70
2018-07-08T11:52:39.117Z,79.40
2018-07-08T11:57:36.641Z,79.70
2018-07-08T12:00:05.967Z,79.00
2018-07-08T12:02:34.691Z,79.40
2018-07-08T12:05:03.553Z,79.20
2018-07-08T12:07:32.348Z,78.50
2018-07-08T12:10:01.053Z,78.50
2018-07-08T12:12:29.738Z,79.20
2018-07-08T12:14:58.408Z,78.50
2018-07-08T12:17:27.139Z,78.40
2018-07-08T12:19:56.054Z,78.00
2018-07-08T12:22:24.755Z,77.10
2018-07-08T12:24:53.452Z,77.20
2018-07-08T12:27:22.133Z,76.80
2018-07-08T12:29:51.027Z,76.90
2018-07-08T12:32:19.727Z,77.10
2018-07-08T12:34:48.382Z,75.90
2018-07-08T12:37:17.102Z,77.00
2018-07-08T12:39:46.446Z,75.70
2018-07-08T12:42:15.165Z,75.30
2018-07-08T12:44:44.079Z,76.20
2018-07-08T12:47:12.602Z,76.20
2018-07-08T12:49:41.376Z,75.60
2018-07-08T12:52:10.759Z,74.60
2018-07-08T12:57:07.734Z,72.90
2018-07-08T13:02:04.731Z,72.90
2018-07-08T13:04:33.372Z,70.80
2018-07-08T13:07:02.018Z,70.80
2018-07-08T13:09:30.647Z,71.00
2018-07-08T13:11:59.322Z,69.40
2018-07-08T13:14:28.573Z,69.90
2018-07-08T13:16:57.291Z,70.30
2018-07-08T13:19:26.003Z,70.60
2018-07-08T13:21:55.012Z,70.30
2018-07-08T13:24:24.849Z,69.70
2018-07-08T13:26:54.512Z,70.40
2018-07-08T13:29:23.218Z,71.10
2018-07-08T13:31:51.990Z,70.80
2018-07-08T13:34:20.653Z,71.10
2018-07-08T13:36:50.086Z,70.50
2018-07-08T13:39:18.747Z,70.70
2018-07-08T13:41:47.484Z,70.20
2018-07-08T13:44:17.184Z,71.10
2018-07-08T13:46:45.846Z,70.10
2018-07-08T13:49:14.727Z,70.10
2018-07-08T13:51:43.418Z,69.40
2018-07-08T13:54:12.988Z,72.00
2018-07-08T13:56:41.689Z,71.90
2018-07-08T13:59:10.675Z,70.90
2018-07-08T14:01:39.342Z,71.10
2018-07-08T14:04:08.076Z,70.20
2018-07-08T14:06:37.024Z,70.80
2018-07-08T14:09:06.929Z,71.80
2018-07-08T14:14:04.020Z,71.00
2018-07-08T14:16:32.764Z,71.60
2018-07-08T14:19:02.280Z,71.40
2018-07-08T14:21:30.992Z,71.80
2018-07-08T14:23:59.756Z,71.30
2018-07-08T14:26:28.546Z,71.40
2018-07-08T14:31:25.756Z,71.20
2018-07-08T14:33:54.509Z,70.20
2018-07-08T14:36:23.183Z,70.00
2018-07-08T14:38:51.865Z,70.30
2018-07-08T14:41:20.597Z,69.60
2018-07-08T14:43:49.336Z,70.40
2018-07-08T14:46:18.097Z,69.40
2018-07-08T14:48:46.875Z,69.70
2018-07-08T14:51:15.599Z,69.60
2018-07-08T14:53:44.596Z,69.50
2018-07-08T14:56:13.312Z,69.50
2018-07-08T14:58:42.086Z,69.10
2018-07-08T15:01:10.788Z,69.50
2018-07-08T15:03:39.550Z,69.70
2018-07-08T15:06:08.246Z,69.20
2018-07-08T15:08:37.044Z,68.70
2018-07-08T15:11:05.944Z,68.60
2018-07-08T15:13:34.659Z,68.10
2018-07-08T15:16:03.562Z,69.60
2018-07-08T15:18:32.844Z,68.90
2018-07-08T15:21:01.626Z,68.60
2018-07-08T15:25:59.633Z,67.40
2018-07-08T15:28:28.459Z,67.70
2018-07-08T15:30:57.093Z,67.40
2018-07-08T15:33:26.051Z,66.60
2018-07-08T15:35:54.708Z,67.90
2018-07-08T15:38:23.407Z,66.80
2018-07-08T15:40:52.242Z,67.40
2018-07-08T15:43:20.962Z,66.60
2018-07-08T15:45:49.699Z,66.40
2018-07-08T15:48:18.444Z,66.00
2018-07-08T15:50:47.161Z,64.10
2018-07-08T15:53:15.892Z,64.10
2018-07-08T15:55:45.286Z,62.30
2018-07-08T15:58:14.107Z,61.40
2018-07-08T16:00:42.816Z,61.60
2018-07-08T16:03:11.502Z,60.40
2018-07-08T16:05:40.207Z,61.00
2018-07-08T16:08:09.001Z,61.50
2018-07-08T16:10:37.662Z,61.30
2018-07-08T16:13:06.498Z,62.30
2018-07-08T16:18:03.671Z,64.30
2018-07-08T16:20:32.426Z,65.10
2018-07-08T16:23:01.113Z,65.40
2018-07-08T16:25:29.976Z,65.70
2018-07-08T16:27:58.666Z,65.80
2018-07-08T16:30:27.441Z,66.20
2018-07-08T16:32:56.266Z,66.90
2018-07-08T16:35:25.011Z,68.00
2018-07-08T16:37:53.703Z,68.80
2018-07-08T16:40:22.518Z,68.30
2018-07-08T16:42:51.269Z,70.10
2018-07-08T16:45:19.971Z,70.30
2018-07-08T16:47:48.727Z,70.60
2018-07-08T16:50:17.440Z,70.50
2018-07-08T16:52:46.257Z,70.80
2018-07-08T16:55:14.994Z,70.60
2018-07-08T16:57:43.750Z,69.70
2018-07-08T17:00:13.151Z,69.40
2018-07-08T17:02:41.858Z,69.10
2018-07-08T17:05:10.568Z,69.60
2018-07-08T17:07:39.278Z,70.20
2018-07-08T17:10:07.960Z,69.60
2018-07-08T17:12:36.738Z,70.70
2018-07-08T17:15:05.504Z,72.10
2018-07-08T17:20:02.717Z,71.70
2018-07-08T17:22:31.433Z,71.70
2018-07-08T17:25:00.609Z,71.80
2018-07-08T17:27:29.405Z,72.00
2018-07-08T17:29:58.103Z,72.50
2018-07-08T17:32:26.922Z,73.30
2018-07-08T17:34:55.637Z,74.10
2018-07-08T17:37:24.331Z,75.40
2018-07-08T17:39:53.234Z,75.70
2018-07-08T17:42:21.857Z,76.60
2018-07-08T17:44:50.590Z,76.60
2018-07-08T17:47:19.348Z,76.50
2018-07-08T17:49:48.131Z,76.60
2018-07-08T17:52:16.776Z,76.80
2018-07-08T17:57:13.861Z,76.90
2018-07-08T17:59:42.646Z,76.70
2018-07-08T18:02:11.392Z,77.00
2018-07-08T18:04:40.206Z,76.70
2018-07-08T18:09:37.907Z,77.10
2018-07-08T18:12:06.912Z,76.60
2018-07-08T18:14:35.597Z,77.30
2018-07-08T18:17:04.315Z,77.50
2018-07-08T18:19:32.983Z,77.30
2018-07-08T18:22:01.673Z,78.10
2018-07-08T18:24:30.388Z,77.80
2018-07-08T18:26:59.055Z,78.10
2018-07-08T18:29:27.927Z,77.90
2018-07-08T18:31:56.664Z,78.20
2018-07-08T18:34:25.391Z,78.30
2018-07-08T18:36:54.904Z,78.60
2018-07-08T18:39:23.625Z,78.90
2018-07-08T18:41:52.353Z,79.60
2018-07-08T18:44:21.026Z,80.20
2018-07-08T18:46:50.339Z,79.80
2018-07-08T18:49:19.052Z,79.50
2018-07-08T18:51:47.758Z,79.40
2018-07-08T18:54:16.540Z,79.70
2018-07-08T18:56:45.294Z,78.50
2018-07-08T18:59:14.685Z,78.20
2018-07-08T19:01:43.319Z,78.30
2018-07-08T19:04:12.017Z,78.60
2018-07-08T19:06:40.789Z,78.60
2018-07-08T19:09:09.473Z,78.30
2018-07-08T19:11:38.233Z,78.70
2018-07-08T19:14:07.069Z,78.40
2018-07-08T19:16:35.805Z,78.60
2018-07-08T19:19:04.538Z,78.00
2018-07-08T19:21:33.339Z,78.60
2018-07-08T19:24:02.222Z,78.60
2018-07-08T19:26:31.712Z,78.40
2018-07-08T19:29:00.987Z,78.90
2018-07-08T19:31:29.730Z,78.40
2018-07-08T19:33:58.900Z,78.90
2018-07-08T19:36:27.749Z,78.80
2018-07-08T19:38:56.643Z,79.00
2018-07-08T19:41:25.414Z,78.80
2018-07-08T19:43:56.765Z,79.30
2018-07-08T19:46:25.682Z,79.70
2018-07-08T19:48:55.063Z,79.90
2018-07-08T19:51:24.504Z,80.30
2018-07-08T19:53:53.201Z,80.50
2018-07-08T19:56:21.966Z,81.10
2018-07-08T19:58:50.826Z,81.30
2018-07-08T20:01:19.591Z,82.00
2018-07-08T20:03:48.528Z,83.10
2018-07-08T20:06:17.292Z,82.80
2018-07-08T20:08:46.098Z,83.10
2018-07-08T20:11:14.986Z,83.70
2018-07-08T20:13:43.770Z,84.10
2018-07-08T20:16:12.545Z,84.30
2018-07-08T20:18:41.390Z,84.70
2018-07-08T20:21:10.994Z,85.10
2018-07-08T20:23:39.809Z,85.30
2018-07-08T20:26:08.597Z,85.70
2018-07-08T20:28:37.377Z,86.00
2018-07-08T20:31:06.195Z,86.20
2018-07-08T20:33:35.558Z,86.50
2018-07-08T20:36:04.324Z,87.00
2018-07-08T20:38:33.767Z,87.30
2018-07-08T20:41:03.421Z,87.70
2018-07-08T20:43:32.347Z,88.30
2018-07-08T20:46:01.750Z,88.50
2018-07-08T20:50:58.916Z,90.00
2018-07-08T20:53:27.784Z,90.00
2018-07-08T20:55:56.603Z,90.20
2018-07-08T20:58:25.478Z,90.50
2018-07-08T21:00:54.324Z,90.60
2018-07-08T21:03:23.758Z,91.00
2018-07-08T21:05:52.677Z,90.90
2018-07-08T21:08:21.531Z,91.30
2018-07-08T21:10:50.325Z,91.50
2018-07-08T21:13:19.029Z,91.90
2018-07-08T21:15:47.789Z,92.10
2018-07-08T21:18:16.962Z,92.30
2018-07-08T21:20:45.739Z,92.70
2018-07-08T21:23:14.771Z,92.60
2018-07-08T21:25:44.685Z,93.00
2018-07-08T21:28:13.566Z,93.30
2018-07-08T21:30:42.752Z,93.60
2018-07-08T21:33:11.732Z,93.80
2018-07-08T21:35:40.548Z,94.00
2018-07-08T21:38:09.306Z,94.50
2018-07-08T21:40:38.972Z,94.50
2018-07-08T21:43:07.762Z,94.80
2018-07-08T21:45:36.563Z,95.20
2018-07-08T21:48:05.407Z,95.60
2018-07-08T21:50:34.147Z,96.50
2018-07-08T21:53:02.911Z,96.70
2018-07-08T21:55:31.773Z,97.40
2018-07-08T21:58:00.465Z,97.80
2018-07-08T22:00:32.131Z,98.30
2018-07-08T22:03:01.287Z,98.60
2018-07-08T22:05:31.310Z,99.20
2018-07-08T22:08:05.934Z,99.80
2018-07-08T22:10:34.682Z,99.90
2018-07-08T22:13:04.067Z,99.90
2018-07-08T22:15:32.802Z,99.90
2018-07-08T22:18:01.489Z,99.90
2018-07-08T22:20:30.146Z,99.90
2018-07-08T22:22:58.811Z,99.90
2018-07-08T22:25:27.534Z,99.90
2018-07-08T22:27:56.246Z,99.90
2018-07-08T22:30:24.969Z,99.90
2018-07-08T22:32:53.721Z,99.90
2018-07-08T22:35:22.448Z,99.90
2018-07-08T22:37:51.219Z,99.90
2018-07-08T22:40:19.877Z,99.90
2018-07-08T22:42:48.563Z,99.90
2018-07-08T22:45:17.283Z,99.90
2018-07-08T22:47:45.977Z,99.90
2018-07-08T22:50:14.680Z,99.90
2018-07-08T22:52:43.477Z,99.90
2018-07-08T22:55:12.213Z,99.90
2018-07-08T22:57:40.917Z,99.90
2018-07-08T23:00:20.752Z,99.90
2018-07-08T23:02:54.354Z,99.90
2018-07-08T23:05:23.074Z,99.90
2018-07-08T23:07:51.841Z,99.90
2018-07-08T23:10:20.606Z,99.90
2018-07-08T23:12:50.084Z,99.90
2018-07-08T23:15:18.930Z,99.90
2018-07-08T23:17:47.664Z,99.90
2018-07-08T23:20:16.653Z,99.90
2018-07-08T23:22:55.911Z,99.90
2018-07-08T23:25:24.646Z,99.90
2018-07-08T23:27:53.781Z,99.90
2018-07-08T23:30:22.581Z,99.90
2018-07-08T23:32:51.383Z,99.90
2018-07-08T23:35:20.091Z,99.90
2018-07-08T23:37:48.953Z,99.90
2018-07-08T23:40:17.678Z,99.90
2018-07-08T23:42:46.461Z,99.90
2018-07-08T23:45:19.241Z,99.90
2018-07-08T23:47:48.645Z,99.90
2018-07-08T23:50:17.370Z,99.90
2018-07-08T23:52:46.087Z,99.90
2018-07-08T23:55:14.732Z,99.90
2018-07-08T23:57:43.429Z,99.90
